sensor_id;sensor_type;location;lat;lon;timestamp;P1;durP1;ratioP1;P2;durP2;ratioP2
75793;SDS011;64418;47.536;19.074;2023-03-01T00:02:14;22.35;;;10.15;;
75793;SDS011;64418;47.536;19.074;2023-03-01T00:04:40;18.75;;;9.55;;
75793;SDS011;64418;47.536;19.074;2023-03-01T00:07:05;24.37;;;10.87;;
75793;SDS011;64418;47.536;19.074;2023-03-01T00:09:32;18.90;;;9.83;;
75793;SDS011;64418;47.536;19.074;2023-03-01T00:12:01;19.48;;;10.38;;
75793;SDS011;64418;47.536;19.074;2023-03-01T00:14:27;20.52;;;9.75;;
75793;SDS011;64418;47.536;19.074;2023-03-01T00:16:56;19.77;;;10.63;;
75793;SDS011;64418;47.536;19.074;2023-03-01T00:19:21;19.85;;;10.68;;
75793;SDS011;64418;47.536;19.074;2023-03-01T00:21:50;20.52;;;10.05;;
75793;SDS011;64418;47.536;19.074;2023-03-01T00:24:16;20.45;;;10.23;;
75793;SDS011;64418;47.536;19.074;2023-03-01T00:26:43;18.90;;;10.67;;
75793;SDS011;64418;47.536;19.074;2023-03-01T00:29:09;19.85;;;9.65;;
75793;SDS011;64418;47.536;19.074;2023-03-01T00:31:34;19.77;;;9.90;;
75793;SDS011;64418;47.536;19.074;2023-03-01T00:34:03;21.93;;;10.33;;
75793;SDS011;64418;47.536;19.074;2023-03-01T00:36:30;22.35;;;10.55;;
75793;SDS011;64418;47.536;19.074;2023-03-01T00:38:58;16.67;;;9.35;;
75793;SDS011;64418;47.536;19.074;2023-03-01T00:41:24;18.77;;;9.00;;
75793;SDS011;64418;47.536;19.074;2023-03-01T00:43:51;16.42;;;8.48;;
75793;SDS011;64418;47.536;19.074;2023-03-01T00:46:19;16.95;;;8.68;;
75793;SDS011;64418;47.536;19.074;2023-03-01T00:48:47;16.12;;;8.10;;
75793;SDS011;64418;47.536;19.074;2023-03-01T00:51:13;15.07;;;8.70;;
75793;SDS011;64418;47.536;19.074;2023-03-01T00:53:41;16.58;;;8.32;;
75793;SDS011;64418;47.536;19.074;2023-03-01T00:56:09;14.55;;;7.78;;
75793;SDS011;64418;47.536;19.074;2023-03-01T00:58:58;16.62;;;8.90;;
75793;SDS011;64418;47.536;19.074;2023-03-01T01:01:24;16.03;;;9.00;;
75793;SDS011;64418;47.536;19.074;2023-03-01T01:03:53;14.63;;;7.78;;
75793;SDS011;64418;47.536;19.074;2023-03-01T01:06:20;14.75;;;7.95;;
75793;SDS011;64418;47.536;19.074;2023-03-01T01:08:48;15.05;;;7.87;;
75793;SDS011;64418;47.536;19.074;2023-03-01T01:11:15;16.73;;;8.00;;
75793;SDS011;64418;47.536;19.074;2023-03-01T01:13:41;13.70;;;7.00;;
75793;SDS011;64418;47.536;19.074;2023-03-01T01:16:11;14.68;;;7.68;;
75793;SDS011;64418;47.536;19.074;2023-03-01T01:18:37;15.68;;;7.60;;
75793;SDS011;64418;47.536;19.074;2023-03-01T01:21:04;13.50;;;7.30;;
75793;SDS011;64418;47.536;19.074;2023-03-01T01:23:31;14.82;;;7.12;;
75793;SDS011;64418;47.536;19.074;2023-03-01T01:25:57;12.43;;;6.70;;
75793;SDS011;64418;47.536;19.074;2023-03-01T01:28:22;12.45;;;6.75;;
75793;SDS011;64418;47.536;19.074;2023-03-01T01:31:08;13.63;;;7.70;;
75793;SDS011;64418;47.536;19.074;2023-03-01T01:33:35;14.53;;;6.90;;
75793;SDS011;64418;47.536;19.074;2023-03-01T01:36:02;12.93;;;6.93;;
75793;SDS011;64418;47.536;19.074;2023-03-01T01:38:28;12.65;;;7.07;;
75793;SDS011;64418;47.536;19.074;2023-03-01T01:40:54;13.63;;;7.27;;
75793;SDS011;64418;47.536;19.074;2023-03-01T01:43:20;15.95;;;8.02;;
75793;SDS011;64418;47.536;19.074;2023-03-01T01:45:47;15.77;;;8.63;;
75793;SDS011;64418;47.536;19.074;2023-03-01T01:48:14;16.70;;;7.80;;
75793;SDS011;64418;47.536;19.074;2023-03-01T01:50:45;14.57;;;8.00;;
75793;SDS011;64418;47.536;19.074;2023-03-01T01:53:18;15.05;;;7.82;;
75793;SDS011;64418;47.536;19.074;2023-03-01T01:55:45;12.93;;;7.40;;
75793;SDS011;64418;47.536;19.074;2023-03-01T01:58:15;14.13;;;8.00;;
75793;SDS011;64418;47.536;19.074;2023-03-01T02:00:42;18.53;;;8.17;;
75793;SDS011;64418;47.536;19.074;2023-03-01T02:03:10;16.60;;;8.45;;
75793;SDS011;64418;47.536;19.074;2023-03-01T02:05:38;17.25;;;8.95;;
75793;SDS011;64418;47.536;19.074;2023-03-01T02:08:12;16.23;;;8.25;;
75793;SDS011;64418;47.536;19.074;2023-03-01T02:10:39;16.27;;;8.70;;
75793;SDS011;64418;47.536;19.074;2023-03-01T02:13:26;15.47;;;7.33;;
75793;SDS011;64418;47.536;19.074;2023-03-01T02:15:53;14.15;;;6.85;;
75793;SDS011;64418;47.536;19.074;2023-03-01T02:18:20;13.27;;;7.28;;
75793;SDS011;64418;47.536;19.074;2023-03-01T02:21:13;13.32;;;6.70;;
75793;SDS011;64418;47.536;19.074;2023-03-01T02:23:49;15.98;;;7.60;;
75793;SDS011;64418;47.536;19.074;2023-03-01T02:26:38;15.33;;;7.43;;
75793;SDS011;64418;47.536;19.074;2023-03-01T02:29:13;16.00;;;8.60;;
75793;SDS011;64418;47.536;19.074;2023-03-01T02:31:39;15.52;;;7.40;;
75793;SDS011;64418;47.536;19.074;2023-03-01T02:34:06;14.00;;;7.85;;
75793;SDS011;64418;47.536;19.074;2023-03-01T02:36:34;16.67;;;8.32;;
75793;SDS011;64418;47.536;19.074;2023-03-01T02:39:02;14.83;;;7.40;;
75793;SDS011;64418;47.536;19.074;2023-03-01T02:41:31;15.43;;;7.82;;
75793;SDS011;64418;47.536;19.074;2023-03-01T02:44:00;15.50;;;8.02;;
75793;SDS011;64418;47.536;19.074;2023-03-01T02:46:28;17.25;;;8.65;;
75793;SDS011;64418;47.536;19.074;2023-03-01T02:48:54;18.80;;;9.00;;
75793;SDS011;64418;47.536;19.074;2023-03-01T02:54:13;15.85;;;8.05;;
75793;SDS011;64418;47.536;19.074;2023-03-01T02:56:49;15.88;;;7.40;;
75793;SDS011;64418;47.536;19.074;2023-03-01T02:59:36;17.48;;;8.80;;
75793;SDS011;64418;47.536;19.074;2023-03-01T03:02:05;14.85;;;8.25;;
75793;SDS011;64418;47.536;19.074;2023-03-01T03:04:31;19.40;;;8.70;;
75793;SDS011;64418;47.536;19.074;2023-03-01T03:07:16;16.80;;;7.90;;
75793;SDS011;64418;47.536;19.074;2023-03-01T03:09:42;16.00;;;8.35;;
75793;SDS011;64418;47.536;19.074;2023-03-01T03:12:08;14.43;;;8.07;;
75793;SDS011;64418;47.536;19.074;2023-03-01T03:14:34;16.50;;;8.25;;
75793;SDS011;64418;47.536;19.074;2023-03-01T03:17:00;15.90;;;8.07;;
75793;SDS011;64418;47.536;19.074;2023-03-01T03:19:27;15.13;;;8.57;;
75793;SDS011;64418;47.536;19.074;2023-03-01T03:21:53;17.12;;;8.13;;
75793;SDS011;64418;47.536;19.074;2023-03-01T03:24:19;14.95;;;7.95;;
75793;SDS011;64418;47.536;19.074;2023-03-01T03:26:48;14.53;;;8.33;;
75793;SDS011;64418;47.536;19.074;2023-03-01T03:29:14;15.23;;;7.65;;
75793;SDS011;64418;47.536;19.074;2023-03-01T03:31:39;14.63;;;8.25;;
75793;SDS011;64418;47.536;19.074;2023-03-01T03:34:05;15.60;;;8.00;;
75793;SDS011;64418;47.536;19.074;2023-03-01T03:36:32;16.47;;;7.87;;
75793;SDS011;64418;47.536;19.074;2023-03-01T03:38:58;13.38;;;7.30;;
75793;SDS011;64418;47.536;19.074;2023-03-01T03:41:24;14.60;;;7.73;;
75793;SDS011;64418;47.536;19.074;2023-03-01T03:43:54;16.15;;;8.07;;
75793;SDS011;64418;47.536;19.074;2023-03-01T03:46:19;14.20;;;7.82;;
75793;SDS011;64418;47.536;19.074;2023-03-01T03:48:45;13.00;;;7.73;;
75793;SDS011;64418;47.536;19.074;2023-03-01T03:51:12;14.87;;;7.70;;
75793;SDS011;64418;47.536;19.074;2023-03-01T03:53:41;23.23;;;8.30;;
75793;SDS011;64418;47.536;19.074;2023-03-01T03:56:07;14.07;;;7.70;;
75793;SDS011;64418;47.536;19.074;2023-03-01T03:58:33;15.35;;;7.75;;
75793;SDS011;64418;47.536;19.074;2023-03-01T04:00:59;13.83;;;7.97;;
75793;SDS011;64418;47.536;19.074;2023-03-01T04:03:25;15.43;;;7.37;;
75793;SDS011;64418;47.536;19.074;2023-03-01T04:05:52;14.90;;;8.50;;
75793;SDS011;64418;47.536;19.074;2023-03-01T04:08:18;14.18;;;7.65;;
75793;SDS011;64418;47.536;19.074;2023-03-01T04:10:48;13.63;;;7.30;;
75793;SDS011;64418;47.536;19.074;2023-03-01T04:13:16;14.43;;;7.32;;
75793;SDS011;64418;47.536;19.074;2023-03-01T04:15:43;14.90;;;8.10;;
75793;SDS011;64418;47.536;19.074;2023-03-01T04:18:10;13.98;;;7.95;;
75793;SDS011;64418;47.536;19.074;2023-03-01T04:20:38;16.80;;;7.87;;
75793;SDS011;64418;47.536;19.074;2023-03-01T04:23:04;17.77;;;7.97;;
75793;SDS011;64418;47.536;19.074;2023-03-01T04:25:32;13.85;;;7.05;;
75793;SDS011;64418;47.536;19.074;2023-03-01T04:27:59;15.05;;;7.90;;
75793;SDS011;64418;47.536;19.074;2023-03-01T04:30:26;14.63;;;7.97;;
75793;SDS011;64418;47.536;19.074;2023-03-01T04:32:52;15.57;;;7.90;;
75793;SDS011;64418;47.536;19.074;2023-03-01T04:35:18;17.05;;;7.35;;
75793;SDS011;64418;47.536;19.074;2023-03-01T04:37:44;15.23;;;7.90;;
75793;SDS011;64418;47.536;19.074;2023-03-01T04:40:10;13.80;;;7.55;;
75793;SDS011;64418;47.536;19.074;2023-03-01T04:42:36;13.85;;;7.80;;
75793;SDS011;64418;47.536;19.074;2023-03-01T04:45:03;12.90;;;7.73;;
75793;SDS011;64418;47.536;19.074;2023-03-01T04:47:30;17.70;;;7.57;;
75793;SDS011;64418;47.536;19.074;2023-03-01T04:49:59;17.33;;;8.10;;
75793;SDS011;64418;47.536;19.074;2023-03-01T04:52:25;15.73;;;8.40;;
75793;SDS011;64418;47.536;19.074;2023-03-01T04:54:51;13.70;;;7.80;;
75793;SDS011;64418;47.536;19.074;2023-03-01T04:57:18;17.30;;;7.85;;
75793;SDS011;64418;47.536;19.074;2023-03-01T04:59:44;14.43;;;7.50;;
75793;SDS011;64418;47.536;19.074;2023-03-01T05:02:12;15.63;;;8.20;;
75793;SDS011;64418;47.536;19.074;2023-03-01T05:04:38;13.50;;;7.33;;
75793;SDS011;64418;47.536;19.074;2023-03-01T05:07:24;15.43;;;7.87;;
75793;SDS011;64418;47.536;19.074;2023-03-01T05:09:50;15.88;;;8.13;;
75793;SDS011;64418;47.536;19.074;2023-03-01T05:12:35;16.87;;;7.53;;
75793;SDS011;64418;47.536;19.074;2023-03-01T05:15:02;15.60;;;7.53;;
75793;SDS011;64418;47.536;19.074;2023-03-01T05:17:30;13.83;;;7.00;;
75793;SDS011;64418;47.536;19.074;2023-03-01T05:19:56;16.58;;;7.78;;
75793;SDS011;64418;47.536;19.074;2023-03-01T05:22:23;14.68;;;7.78;;
75793;SDS011;64418;47.536;19.074;2023-03-01T05:24:48;18.83;;;8.50;;
75793;SDS011;64418;47.536;19.074;2023-03-01T05:27:14;14.83;;;7.30;;
75793;SDS011;64418;47.536;19.074;2023-03-01T05:29:40;19.12;;;7.97;;
75793;SDS011;64418;47.536;19.074;2023-03-01T05:32:06;13.40;;;7.27;;
75793;SDS011;64418;47.536;19.074;2023-03-01T05:34:34;16.80;;;7.43;;
75793;SDS011;64418;47.536;19.074;2023-03-01T05:37:00;17.83;;;7.73;;
75793;SDS011;64418;47.536;19.074;2023-03-01T05:39:28;12.68;;;6.78;;
75793;SDS011;64418;47.536;19.074;2023-03-01T05:41:56;14.68;;;8.00;;
75793;SDS011;64418;47.536;19.074;2023-03-01T05:44:23;14.52;;;6.95;;
75793;SDS011;64418;47.536;19.074;2023-03-01T05:46:49;14.48;;;7.70;;
75793;SDS011;64418;47.536;19.074;2023-03-01T05:49:15;14.27;;;7.60;;
75793;SDS011;64418;47.536;19.074;2023-03-01T05:51:43;13.82;;;7.25;;
75793;SDS011;64418;47.536;19.074;2023-03-01T05:54:13;16.08;;;7.72;;
75793;SDS011;64418;47.536;19.074;2023-03-01T05:56:39;13.65;;;7.55;;
75793;SDS011;64418;47.536;19.074;2023-03-01T05:59:05;14.68;;;7.80;;
75793;SDS011;64418;47.536;19.074;2023-03-01T06:01:31;18.27;;;8.07;;
75793;SDS011;64418;47.536;19.074;2023-03-01T06:03:57;14.82;;;7.65;;
75793;SDS011;64418;47.536;19.074;2023-03-01T06:06:26;15.65;;;7.20;;
75793;SDS011;64418;47.536;19.074;2023-03-01T06:08:57;16.70;;;7.60;;
75793;SDS011;64418;47.536;19.074;2023-03-01T06:11:26;19.92;;;8.25;;
75793;SDS011;64418;47.536;19.074;2023-03-01T06:13:52;13.88;;;7.60;;
75793;SDS011;64418;47.536;19.074;2023-03-01T06:16:17;21.03;;;8.00;;
75793;SDS011;64418;47.536;19.074;2023-03-01T06:18:43;17.47;;;7.50;;
75793;SDS011;64418;47.536;19.074;2023-03-01T06:21:09;16.02;;;7.55;;
75793;SDS011;64418;47.536;19.074;2023-03-01T06:23:35;15.80;;;6.70;;
75793;SDS011;64418;47.536;19.074;2023-03-01T06:26:06;14.13;;;7.60;;
75793;SDS011;64418;47.536;19.074;2023-03-01T06:28:33;17.80;;;7.90;;
75793;SDS011;64418;47.536;19.074;2023-03-01T06:30:58;19.80;;;8.10;;
75793;SDS011;64418;47.536;19.074;2023-03-01T06:33:24;19.30;;;7.73;;
75793;SDS011;64418;47.536;19.074;2023-03-01T06:35:50;20.00;;;8.95;;
75793;SDS011;64418;47.536;19.074;2023-03-01T06:38:16;21.30;;;8.23;;
75793;SDS011;64418;47.536;19.074;2023-03-01T06:40:42;16.07;;;8.20;;
75793;SDS011;64418;47.536;19.074;2023-03-01T06:43:10;13.50;;;7.32;;
75793;SDS011;64418;47.536;19.074;2023-03-01T06:45:36;18.35;;;7.95;;
75793;SDS011;64418;47.536;19.074;2023-03-01T06:48:03;17.05;;;8.32;;
75793;SDS011;64418;47.536;19.074;2023-03-01T06:50:30;14.18;;;7.53;;
75793;SDS011;64418;47.536;19.074;2023-03-01T06:53:16;16.10;;;7.53;;
75793;SDS011;64418;47.536;19.074;2023-03-01T06:55:41;18.65;;;7.70;;
75793;SDS011;64418;47.536;19.074;2023-03-01T06:58:09;17.57;;;8.00;;
75793;SDS011;64418;47.536;19.074;2023-03-01T07:00:55;17.25;;;8.25;;
75793;SDS011;64418;47.536;19.074;2023-03-01T07:03:21;14.65;;;7.20;;
75793;SDS011;64418;47.536;19.074;2023-03-01T07:05:48;14.40;;;7.62;;
75793;SDS011;64418;47.536;19.074;2023-03-01T07:08:14;17.83;;;7.67;;
75793;SDS011;64418;47.536;19.074;2023-03-01T07:10:40;15.90;;;8.23;;
75793;SDS011;64418;47.536;19.074;2023-03-01T07:13:06;20.15;;;8.85;;
75793;SDS011;64418;47.536;19.074;2023-03-01T07:15:33;17.70;;;8.18;;
75793;SDS011;64418;47.536;19.074;2023-03-01T07:17:59;20.80;;;8.83;;
75793;SDS011;64418;47.536;19.074;2023-03-01T07:20:25;16.02;;;8.20;;
75793;SDS011;64418;47.536;19.074;2023-03-01T07:22:51;16.27;;;7.68;;
75793;SDS011;64418;47.536;19.074;2023-03-01T07:25:18;17.03;;;8.97;;
75793;SDS011;64418;47.536;19.074;2023-03-01T07:27:48;15.73;;;7.97;;
75793;SDS011;64418;47.536;19.074;2023-03-01T07:30:36;18.70;;;9.02;;
75793;SDS011;64418;47.536;19.074;2023-03-01T07:33:02;21.62;;;8.15;;
75793;SDS011;64418;47.536;19.074;2023-03-01T07:35:28;17.65;;;8.45;;
75793;SDS011;64418;47.536;19.074;2023-03-01T07:37:54;17.27;;;8.50;;
75793;SDS011;64418;47.536;19.074;2023-03-01T07:40:21;16.02;;;7.50;;
75793;SDS011;64418;47.536;19.074;2023-03-01T07:42:47;18.30;;;8.18;;
75793;SDS011;64418;47.536;19.074;2023-03-01T07:45:12;21.47;;;10.23;;
75793;SDS011;64418;47.536;19.074;2023-03-01T07:47:39;18.58;;;9.32;;
75793;SDS011;64418;47.536;19.074;2023-03-01T07:50:25;15.88;;;7.75;;
75793;SDS011;64418;47.536;19.074;2023-03-01T07:52:51;17.30;;;8.33;;
75793;SDS011;64418;47.536;19.074;2023-03-01T07:55:16;19.00;;;9.15;;
75793;SDS011;64418;47.536;19.074;2023-03-01T07:57:42;15.60;;;8.00;;
75793;SDS011;64418;47.536;19.074;2023-03-01T08:00:09;15.95;;;8.32;;
75793;SDS011;64418;47.536;19.074;2023-03-01T08:03:00;17.87;;;8.02;;
75793;SDS011;64418;47.536;19.074;2023-03-01T08:05:49;17.00;;;8.30;;
75793;SDS011;64418;47.536;19.074;2023-03-01T08:08:35;21.43;;;8.47;;
75793;SDS011;64418;47.536;19.074;2023-03-01T08:11:02;23.17;;;8.32;;
75793;SDS011;64418;47.536;19.074;2023-03-01T08:13:30;19.17;;;8.30;;
75793;SDS011;64418;47.536;19.074;2023-03-01T08:16:00;25.80;;;9.55;;
75793;SDS011;64418;47.536;19.074;2023-03-01T08:18:27;19.25;;;8.80;;
75793;SDS011;64418;47.536;19.074;2023-03-01T08:20:53;20.17;;;8.30;;
75793;SDS011;64418;47.536;19.074;2023-03-01T08:23:19;23.05;;;9.40;;
75793;SDS011;64418;47.536;19.074;2023-03-01T08:26:05;20.52;;;7.90;;
75793;SDS011;64418;47.536;19.074;2023-03-01T08:28:32;18.40;;;8.13;;
75793;SDS011;64418;47.536;19.074;2023-03-01T08:31:19;18.53;;;7.63;;
75793;SDS011;64418;47.536;19.074;2023-03-01T08:34:07;15.27;;;7.10;;
75793;SDS011;64418;47.536;19.074;2023-03-01T08:36:55;14.40;;;7.78;;
75793;SDS011;64418;47.536;19.074;2023-03-01T08:39:21;12.43;;;6.80;;
75793;SDS011;64418;47.536;19.074;2023-03-01T08:42:06;14.48;;;8.10;;
75793;SDS011;64418;47.536;19.074;2023-03-01T08:44:32;16.37;;;8.30;;
75793;SDS011;64418;47.536;19.074;2023-03-01T08:47:18;13.38;;;7.12;;
75793;SDS011;64418;47.536;19.074;2023-03-01T08:49:45;14.85;;;7.90;;
75793;SDS011;64418;47.536;19.074;2023-03-01T08:52:11;12.67;;;7.00;;
75793;SDS011;64418;47.536;19.074;2023-03-01T08:54:56;15.27;;;7.80;;
75793;SDS011;64418;47.536;19.074;2023-03-01T08:57:22;13.90;;;7.12;;
75793;SDS011;64418;47.536;19.074;2023-03-01T08:59:49;13.23;;;7.35;;
75793;SDS011;64418;47.536;19.074;2023-03-01T09:02:35;11.90;;;7.47;;
75793;SDS011;64418;47.536;19.074;2023-03-01T09:05:02;11.33;;;6.40;;
75793;SDS011;64418;47.536;19.074;2023-03-01T09:07:28;13.88;;;7.87;;
75793;SDS011;64418;47.536;19.074;2023-03-01T09:09:53;16.77;;;8.48;;
75793;SDS011;64418;47.536;19.074;2023-03-01T09:12:20;11.87;;;6.73;;
75793;SDS011;64418;47.536;19.074;2023-03-01T09:15:06;15.00;;;8.10;;
75793;SDS011;64418;47.536;19.074;2023-03-01T09:17:33;11.60;;;7.07;;
75793;SDS011;64418;47.536;19.074;2023-03-01T09:19:59;17.85;;;7.80;;
75793;SDS011;64418;47.536;19.074;2023-03-01T09:22:27;11.77;;;7.55;;
75793;SDS011;64418;47.536;19.074;2023-03-01T09:24:53;15.00;;;7.00;;
75793;SDS011;64418;47.536;19.074;2023-03-01T09:27:19;12.43;;;7.60;;
75793;SDS011;64418;47.536;19.074;2023-03-01T09:30:05;13.50;;;7.00;;
75793;SDS011;64418;47.536;19.074;2023-03-01T09:32:31;12.95;;;7.78;;
75793;SDS011;64418;47.536;19.074;2023-03-01T09:35:19;14.50;;;7.70;;
75793;SDS011;64418;47.536;19.074;2023-03-01T09:38:05;13.40;;;7.47;;
75793;SDS011;64418;47.536;19.074;2023-03-01T09:40:33;14.55;;;7.90;;
75793;SDS011;64418;47.536;19.074;2023-03-01T09:43:01;13.55;;;8.02;;
75793;SDS011;64418;47.536;19.074;2023-03-01T09:45:58;13.80;;;7.15;;
75793;SDS011;64418;47.536;19.074;2023-03-01T09:48:28;12.43;;;7.50;;
75793;SDS011;64418;47.536;19.074;2023-03-01T09:51:04;13.07;;;7.90;;
75793;SDS011;64418;47.536;19.074;2023-03-01T09:53:54;16.35;;;8.93;;
75793;SDS011;64418;47.536;19.074;2023-03-01T09:56:21;17.02;;;8.02;;
75793;SDS011;64418;47.536;19.074;2023-03-01T09:58:53;15.82;;;9.27;;
75793;SDS011;64418;47.536;19.074;2023-03-01T10:01:31;17.40;;;8.60;;
75793;SDS011;64418;47.536;19.074;2023-03-01T10:04:04;15.67;;;8.57;;
75793;SDS011;64418;47.536;19.074;2023-03-01T10:07:07;20.90;;;8.70;;
75793;SDS011;64418;47.536;19.074;2023-03-01T10:10:07;15.60;;;7.82;;
75793;SDS011;64418;47.536;19.074;2023-03-01T10:12:41;13.38;;;8.55;;
75793;SDS011;64418;47.536;19.074;2023-03-01T10:15:11;19.83;;;9.38;;
75793;SDS011;64418;47.536;19.074;2023-03-01T10:17:43;13.13;;;7.60;;
75793;SDS011;64418;47.536;19.074;2023-03-01T10:20:18;12.50;;;7.97;;
75793;SDS011;64418;47.536;19.074;2023-03-01T10:23:09;13.62;;;7.43;;
75793;SDS011;64418;47.536;19.074;2023-03-01T10:29:16;13.88;;;9.15;;
75793;SDS011;64418;47.536;19.074;2023-03-01T10:31:43;15.52;;;8.98;;
75793;SDS011;64418;47.536;19.074;2023-03-01T10:34:14;16.03;;;8.50;;
75793;SDS011;64418;47.536;19.074;2023-03-01T10:36:41;12.45;;;8.23;;
75793;SDS011;64418;47.536;19.074;2023-03-01T10:39:29;14.65;;;9.50;;
75793;SDS011;64418;47.536;19.074;2023-03-01T10:42:19;16.65;;;8.65;;
75793;SDS011;64418;47.536;19.074;2023-03-01T10:45:14;19.05;;;8.95;;
75793;SDS011;64418;47.536;19.074;2023-03-01T10:47:42;13.73;;;8.77;;
75793;SDS011;64418;47.536;19.074;2023-03-01T10:50:28;13.00;;;8.70;;
75793;SDS011;64418;47.536;19.074;2023-03-01T10:53:22;18.85;;;10.25;;
75793;SDS011;64418;47.536;19.074;2023-03-01T10:55:57;16.55;;;8.48;;
75793;SDS011;64418;47.536;19.074;2023-03-01T10:58:56;53.40;;;33.28;;
75793;SDS011;64418;47.536;19.074;2023-03-01T11:01:24;19.92;;;14.05;;
75793;SDS011;64418;47.536;19.074;2023-03-01T11:04:03;17.73;;;10.53;;
75793;SDS011;64418;47.536;19.074;2023-03-01T11:06:59;14.73;;;8.73;;
75793;SDS011;64418;47.536;19.074;2023-03-01T11:09:47;14.20;;;8.40;;
75793;SDS011;64418;47.536;19.074;2023-03-01T11:12:15;12.55;;;8.45;;
75793;SDS011;64418;47.536;19.074;2023-03-01T11:14:46;13.73;;;7.75;;
75793;SDS011;64418;47.536;19.074;2023-03-01T11:17:14;16.62;;;8.95;;
75793;SDS011;64418;47.536;19.074;2023-03-01T11:19:43;15.70;;;8.57;;
75793;SDS011;64418;47.536;19.074;2023-03-01T11:22:46;12.70;;;9.10;;
75793;SDS011;64418;47.536;19.074;2023-03-01T11:25:36;14.48;;;8.48;;
75793;SDS011;64418;47.536;19.074;2023-03-01T11:28:07;15.07;;;7.57;;
75793;SDS011;64418;47.536;19.074;2023-03-01T11:30:58;15.38;;;8.73;;
75793;SDS011;64418;47.536;19.074;2023-03-01T11:33:33;13.53;;;8.33;;
75793;SDS011;64418;47.536;19.074;2023-03-01T11:36:03;15.37;;;7.97;;
75793;SDS011;64418;47.536;19.074;2023-03-01T11:38:34;16.73;;;9.02;;
75793;SDS011;64418;47.536;19.074;2023-03-01T11:41:04;11.38;;;7.60;;
75793;SDS011;64418;47.536;19.074;2023-03-01T11:43:36;14.15;;;7.70;;
75793;SDS011;64418;47.536;19.074;2023-03-01T11:49:06;13.50;;;8.07;;
75793;SDS011;64418;47.536;19.074;2023-03-01T11:51:47;13.67;;;6.80;;
75793;SDS011;64418;47.536;19.074;2023-03-01T11:54:23;13.38;;;7.37;;
75793;SDS011;64418;47.536;19.074;2023-03-01T11:57:17;13.80;;;7.53;;
75793;SDS011;64418;47.536;19.074;2023-03-01T12:00:22;12.50;;;7.72;;
75793;SDS011;64418;47.536;19.074;2023-03-01T12:03:19;15.05;;;6.93;;
75793;SDS011;64418;47.536;19.074;2023-03-01T12:06:00;10.77;;;6.33;;
75793;SDS011;64418;47.536;19.074;2023-03-01T12:08:50;10.97;;;6.23;;
75793;SDS011;64418;47.536;19.074;2023-03-01T12:11:49;16.60;;;6.55;;
75793;SDS011;64418;47.536;19.074;2023-03-01T12:14:35;14.82;;;7.43;;
75793;SDS011;64418;47.536;19.074;2023-03-01T12:17:38;10.90;;;6.57;;
75793;SDS011;64418;47.536;19.074;2023-03-01T12:20:17;11.32;;;7.05;;
75793;SDS011;64418;47.536;19.074;2023-03-01T12:22:52;12.63;;;6.45;;
75793;SDS011;64418;47.536;19.074;2023-03-01T12:25:31;12.27;;;6.67;;
75793;SDS011;64418;47.536;19.074;2023-03-01T12:28:08;9.82;;;6.30;;
75793;SDS011;64418;47.536;19.074;2023-03-01T12:31:00;12.70;;;7.07;;
75793;SDS011;64418;47.536;19.074;2023-03-01T12:33:45;11.60;;;6.43;;
75793;SDS011;64418;47.536;19.074;2023-03-01T12:36:47;14.93;;;7.15;;
75793;SDS011;64418;47.536;19.074;2023-03-01T12:39:27;16.33;;;10.30;;
75793;SDS011;64418;47.536;19.074;2023-03-01T12:42:26;14.93;;;9.37;;
75793;SDS011;64418;47.536;19.074;2023-03-01T12:47:58;13.20;;;7.25;;
75793;SDS011;64418;47.536;19.074;2023-03-01T12:50:37;8.75;;;5.20;;
75793;SDS011;64418;47.536;19.074;2023-03-01T12:53:28;11.43;;;6.15;;
75793;SDS011;64418;47.536;19.074;2023-03-01T12:55:58;9.40;;;5.07;;
75793;SDS011;64418;47.536;19.074;2023-03-01T12:58:28;7.30;;;4.73;;
75793;SDS011;64418;47.536;19.074;2023-03-01T13:01:20;9.85;;;5.37;;
75793;SDS011;64418;47.536;19.074;2023-03-01T13:04:03;14.80;;;4.90;;
75793;SDS011;64418;47.536;19.074;2023-03-01T13:07:02;7.85;;;4.45;;
75793;SDS011;64418;47.536;19.074;2023-03-01T13:10:02;7.62;;;4.60;;
75793;SDS011;64418;47.536;19.074;2023-03-01T13:12:41;8.30;;;4.80;;
75793;SDS011;64418;47.536;19.074;2023-03-01T13:18:00;7.15;;;4.47;;
75793;SDS011;64418;47.536;19.074;2023-03-01T13:20:32;9.02;;;4.50;;
75793;SDS011;64418;47.536;19.074;2023-03-01T13:23:12;11.52;;;5.18;;
75793;SDS011;64418;47.536;19.074;2023-03-01T13:26:00;7.23;;;4.20;;
75793;SDS011;64418;47.536;19.074;2023-03-01T13:28:52;11.03;;;4.63;;
75793;SDS011;64418;47.536;19.074;2023-03-01T13:34:40;7.85;;;4.07;;
75793;SDS011;64418;47.536;19.074;2023-03-01T13:37:37;9.75;;;3.97;;
75793;SDS011;64418;47.536;19.074;2023-03-01T13:40:56;6.35;;;4.10;;
75793;SDS011;64418;47.536;19.074;2023-03-01T13:43:25;5.33;;;3.17;;
75793;SDS011;64418;47.536;19.074;2023-03-01T13:45:54;9.07;;;3.03;;
75793;SDS011;64418;47.536;19.074;2023-03-01T13:48:21;16.98;;;4.47;;
75793;SDS011;64418;47.536;19.074;2023-03-01T13:50:53;5.60;;;3.10;;
75793;SDS011;64418;47.536;19.074;2023-03-01T13:53:24;6.50;;;3.10;;
75793;SDS011;64418;47.536;19.074;2023-03-01T13:55:55;10.05;;;3.50;;
75793;SDS011;64418;47.536;19.074;2023-03-01T13:58:25;9.53;;;3.70;;
75793;SDS011;64418;47.536;19.074;2023-03-01T14:00:55;6.65;;;3.10;;
75793;SDS011;64418;47.536;19.074;2023-03-01T14:03:22;6.78;;;3.35;;
75793;SDS011;64418;47.536;19.074;2023-03-01T14:05:57;5.82;;;3.35;;
75793;SDS011;64418;47.536;19.074;2023-03-01T14:08:46;5.97;;;3.25;;
75793;SDS011;64418;47.536;19.074;2023-03-01T14:11:23;4.53;;;3.10;;
75793;SDS011;64418;47.536;19.074;2023-03-01T14:17:04;8.05;;;3.50;;
75793;SDS011;64418;47.536;19.074;2023-03-01T14:19:45;11.48;;;3.17;;
75793;SDS011;64418;47.536;19.074;2023-03-01T14:22:14;8.80;;;3.45;;
75793;SDS011;64418;47.536;19.074;2023-03-01T14:25:06;4.77;;;3.20;;
75793;SDS011;64418;47.536;19.074;2023-03-01T14:27:44;7.70;;;3.17;;
75793;SDS011;64418;47.536;19.074;2023-03-01T14:30:37;7.07;;;3.55;;
75793;SDS011;64418;47.536;19.074;2023-03-01T14:33:27;7.37;;;3.70;;
75793;SDS011;64418;47.536;19.074;2023-03-01T14:35:55;13.85;;;3.37;;
75793;SDS011;64418;47.536;19.074;2023-03-01T14:38:23;6.05;;;3.08;;
75793;SDS011;64418;47.536;19.074;2023-03-01T14:40:54;5.60;;;3.30;;
75793;SDS011;64418;47.536;19.074;2023-03-01T14:43:46;5.37;;;3.25;;
75793;SDS011;64418;47.536;19.074;2023-03-01T14:46:17;5.78;;;3.12;;
75793;SDS011;64418;47.536;19.074;2023-03-01T14:49:06;6.03;;;3.25;;
75793;SDS011;64418;47.536;19.074;2023-03-01T14:51:57;5.53;;;3.10;;
75793;SDS011;64418;47.536;19.074;2023-03-01T14:54:46;9.83;;;3.20;;
75793;SDS011;64418;47.536;19.074;2023-03-01T14:57:14;7.97;;;3.00;;
75793;SDS011;64418;47.536;19.074;2023-03-01T15:00:03;5.53;;;2.70;;
75793;SDS011;64418;47.536;19.074;2023-03-01T15:02:32;6.95;;;3.10;;
75793;SDS011;64418;47.536;19.074;2023-03-01T15:04:59;7.93;;;2.97;;
75793;SDS011;64418;47.536;19.074;2023-03-01T15:07:28;8.52;;;3.17;;
75793;SDS011;64418;47.536;19.074;2023-03-01T15:09:57;8.13;;;3.30;;
75793;SDS011;64418;47.536;19.074;2023-03-01T15:12:36;5.80;;;2.80;;
75793;SDS011;64418;47.536;19.074;2023-03-01T15:15:32;10.50;;;2.85;;
75793;SDS011;64418;47.536;19.074;2023-03-01T15:18:20;6.82;;;3.00;;
75793;SDS011;64418;47.536;19.074;2023-03-01T15:20:48;5.30;;;2.90;;